Hillegom, Netherlands
Current Conditions -  °F | °C
As of 1:55 AM on Saturday 25 Oct 2014 (Local Time) from EHAM Reporting Station
Overcast Overcast  
Wind Chill: 54°   Ceiling: 500
Heat Index: 54°   Visibility: 4mi
Dew Point: 54°   Wind: 14mph
Humidity: 100%   Direction: 200°SSW
Pressure: 29.94"   Gusts: NA
Location:  52.29°N, 4.58°E
Report Text: EHAM 242355Z 20012KT 6000 OVC005 12/12 Q1014 NOSIG
Loading
Personal Weather Stations






























Interactive Weather Map
Tropical Storm Tracking
New forecast layout! Learn more

10-Day Weather Forecast

Advertisements
Track Severe Weather on mobile